Ana Sayfa
METAR-TAF:

METAR-TAF

Havaalanları :

Talara, Peru

Enlem: 04-34S, Boylam: 081-15W, yükseklik: 85 m

Güncel hava durumu gözlemi

Rapor saat 16:00 UTC de 15 dakika önce yapıldı.
Rüzgar güneydan 16 kt
Sıcaklık 24°C
Nem 69%
Basınç 1013 hPa
Görüş mesafesi 10 km veya daha fazla
1500 m altında bulut yok ve kümülonimbus yok

METAR: SPYL 181600Z 17016KT CAVOK 24/18 Q1013 RMK BIRD HAZARD RWY 17/35 PP000

Saat: 11:15 (16:15 UTC)

Tahmin

Rapor saat 11:00 UTC de 5 saat ve 15 dakika önce yapıldı.
Ayın 18'si saat 12 UTC'den ayın 19'si saat 12 UTC'ye kadar geçerli Tahmin
Rüzgar güney/güneydoğudan 13 kt
Görüş mesafesi 10 km veya daha fazla
1500 m altında bulut yok ve kümülonimbus yok
Ayın 18'si saat 1800 UTC'den
Rüzgar güney/güneybatıdan 11 kt
Görüş mesafesi 10 km veya daha fazla
1500 m altında bulut yok ve kümülonimbus yok

TAF: SPYL 181100Z 1812/1912 15013KT CAVOK TX26/1819Z TN19/1911Z FM181800 20011KT CAVOK

4.000'den fazla havaalanı için hava durumu gözlemleri ve tahminleri (METAR ve TAF raporları).

Kullanılabilir istasyonlar harita üzerinde sarı ve kırmızı noktalarla gösterilir.

İstasyonun adını görmek için fareyi noktanın üzerinde gezdirin.

Sonrasında hava gözlem ve tahminlerini görmek için tıklayın.

Haritayı değiştirmek için: yaklaştırmak için siyah artı işaretli yeşil düğmeye ve uzaklaştırmak için de eksi işaretli düğmeye hızla tıklayın; bitişik haritalar için yeşil okları kullanın.


METAR-TAF: